Time;durP1;ratioP1;P1;durP2;ratioP2;P2;SDS_P1;SDS_P2;PMS_P1;PMS_P2;Temp;Humidity;BMP_temperature;BMP_pressure;BME280_temperature;BME280_humidity;BME280_pressure;Samples;Min_cycle;Max_cycle;Signal;HPM_P1;HPM_P2
2022/12/11 00:02:03;;;;;;;62.55;17.92;;;2.40;99.90;;;;;;5019814;28;20034;-70
2022/12/11 00:04:29;;;;;;;51.65;17.08;;;2.40;99.90;;;;;;5022524;28;20116;-71
2022/12/11 00:06:55;;;;;;;51.25;16.50;;;2.40;99.90;;;;;;5002730;28;20037;-70
2022/12/11 00:09:21;;;;;;;69.30;17.25;;;2.40;99.90;;;;;;5002544;28;20032;-70
2022/12/11 00:11:47;;;;;;;46.85;16.83;;;2.40;99.90;;;;;;5017589;28;20026;-70
2022/12/11 00:14:13;;;;;;;53.45;17.33;;;2.40;99.90;;;;;;5020901;28;20048;-70
2022/12/11 00:16:40;;;;;;;48.92;16.50;;;2.40;99.90;;;;;;5022132;28;20462;-70
2022/12/11 00:19:06;;;;;;;43.63;15.55;;;2.40;99.90;;;;;;5021444;28;20160;-71
2022/12/11 00:21:31;;;;;;;52.67;17.48;;;2.40;99.90;;;;;;5018273;28;20046;-71
2022/12/11 00:23:57;;;;;;;51.80;17.83;;;2.40;99.90;;;;;;5003897;28;20033;-70
2022/12/11 00:26:23;;;;;;;46.70;15.40;;;2.40;99.90;;;;;;5015833;28;20516;-70
2022/12/11 00:28:52;;;;;;;53.05;17.92;;;2.40;99.90;;;;;;5019181;28;20041;-70
2022/12/11 00:31:19;;;;;;;53.37;18.57;;;2.40;99.90;;;;;;5020176;28;20030;-70
2022/12/11 00:33:48;;;;;;;57.97;17.63;;;2.40;99.90;;;;;;5002240;28;20102;-71
2022/12/11 00:36:20;;;;;;;59.38;19.40;;;2.40;99.90;;;;;;5019919;28;20049;-71
2022/12/11 00:38:45;;;;;;;61.70;18.92;;;2.50;99.90;;;;;;5019625;28;20037;-70
2022/12/11 00:41:11;;;;;;;54.92;19.17;;;2.50;99.90;;;;;;5020310;28;20060;-71
2022/12/11 00:43:37;;;;;;;57.75;20.10;;;2.50;99.90;;;;;;5020034;28;20033;-70
2022/12/11 00:46:03;;;;;;;63.53;20.38;;;2.50;99.90;;;;;;5018162;28;20514;-71
2022/12/11 00:48:29;;;;;;;66.47;19.67;;;2.50;99.90;;;;;;5004078;28;20030;-71
2022/12/11 00:50:55;;;;;;;59.65;18.88;;;2.50;99.90;;;;;;5000738;28;20391;-71
2022/12/11 00:53:20;;;;;;;59.42;18.05;;;2.50;99.90;;;;;;5003402;28;20992;-71
2022/12/11 00:55:46;;;;;;;67.47;19.17;;;2.50;99.90;;;;;;5018059;28;20449;-71
2022/12/11 00:58:13;;;;;;;51.67;18.73;;;2.50;99.90;;;;;;5019220;28;20406;-70
2022/12/11 01:00:40;;;;;;;61.35;18.20;;;2.50;99.90;;;;;;5018892;28;20347;-71
2022/12/11 01:03:05;;;;;;;55.90;18.20;;;2.50;99.90;;;;;;5000715;28;20117;-71
2022/12/11 01:05:31;;;;;;;58.03;17.92;;;2.50;99.90;;;;;;5021063;28;20133;-71
2022/12/11 01:07:57;;;;;;;51.60;17.98;;;2.50;99.90;;;;;;5017519;28;20038;-70
2022/12/11 01:10:23;;;;;;;50.55;17.25;;;2.50;99.90;;;;;;5021259;28;20489;-70
2022/12/11 01:12:56;;;;;;;54.65;18.42;;;2.50;99.90;;;;;;5020556;28;20085;-70
2022/12/11 01:15:24;;;;;;;47.75;17.30;;;2.50;99.90;;;;;;4998704;28;20140;-71
2022/12/11 01:17:50;;;;;;;56.55;18.10;;;2.50;99.90;;;;;;5000005;28;20413;-70
2022/12/11 01:20:19;;;;;;;49.58;18.02;;;2.50;99.90;;;;;;5019859;28;20065;-70
2022/12/11 01:22:44;;;;;;;55.08;19.20;;;2.50;99.90;;;;;;5000340;28;20061;-70
2022/12/11 01:25:10;;;;;;;58.28;18.42;;;2.60;99.90;;;;;;5018958;28;20069;-70
2022/12/11 01:27:37;;;;;;;60.10;19.38;;;2.60;99.90;;;;;;5018476;28;20034;-70
2022/12/11 01:30:04;;;;;;;61.55;20.98;;;2.60;99.90;;;;;;5002208;28;20029;-70
2022/12/11 01:32:31;;;;;;;56.90;19.67;;;2.60;99.90;;;;;;5017660;28;20573;-70
2022/12/11 01:34:57;;;;;;;56.65;18.83;;;2.60;99.90;;;;;;5020239;28;20556;-71
2022/12/11 01:37:22;;;;;;;61.47;19.30;;;2.60;99.90;;;;;;5017955;28;20041;-70
2022/12/11 01:39:48;;;;;;;46.38;17.42;;;2.60;99.90;;;;;;5002056;28;20137;-70
2022/12/11 01:42:17;;;;;;;58.58;19.48;;;2.60;99.90;;;;;;5018221;28;20557;-70
2022/12/11 01:44:43;;;;;;;53.50;17.75;;;2.60;99.90;;;;;;5018935;28;20077;-69
2022/12/11 01:47:09;;;;;;;54.67;18.33;;;2.60;99.90;;;;;;5018893;28;20462;-70
2022/12/11 01:49:35;;;;;;;48.60;16.52;;;2.60;99.90;;;;;;5017301;28;20044;-70
2022/12/11 01:52:10;;;;;;;44.13;15.32;;;2.60;99.90;;;;;;5019364;28;20053;-71
2022/12/11 01:54:36;;;;;;;44.90;16.60;;;2.60;99.90;;;;;;5017268;28;20057;-71
2022/12/11 01:57:05;;;;;;;38.78;14.18;;;2.60;99.90;;;;;;5019049;28;20069;-71
2022/12/11 01:59:33;;;;;;;43.05;15.40;;;2.60;99.90;;;;;;5015711;28;20494;-72
2022/12/11 02:02:05;;;;;;;39.67;15.10;;;2.60;99.90;;;;;;5002102;28;20456;-71
2022/12/11 02:04:32;;;;;;;44.55;14.68;;;2.60;99.90;;;;;;5017064;28;20333;-72
2022/12/11 02:06:58;;;;;;;41.10;15.63;;;2.60;99.90;;;;;;5001601;28;20037;-71
2022/12/11 02:09:32;;;;;;;40.05;14.30;;;2.60;99.90;;;;;;4999188;28;20087;-70
2022/12/11 02:12:18;;;;;;;42.00;14.90;;;2.60;99.90;;;;;;4995416;28;20438;-70
2022/12/11 02:15:26;;;;;;;50.90;17.27;;;2.60;99.90;;;;;;5014623;28;20026;-71
2022/12/11 02:18:20;;;;;;;35.78;14.07;;;2.60;99.90;;;;;;4931664;29;20059;-70
2022/12/11 02:20:46;;;;;;;35.05;13.93;;;2.70;99.90;;;;;;5017012;28;20494;-70
2022/12/11 02:23:11;;;;;;;38.15;13.40;;;2.70;99.90;;;;;;5016797;28;20041;-70
2022/12/11 02:25:46;;;;;;;33.22;13.27;;;2.70;99.90;;;;;;5013828;28;20045;-69
2022/12/11 02:28:24;;;;;;;35.05;12.93;;;2.60;99.90;;;;;;5018551;28;20529;-70
2022/12/11 02:31:01;;;;;;;24.17;11.27;;;2.70;99.90;;;;;;4997882;28;20042;-70
2022/12/11 02:33:48;;;;;;;32.03;13.18;;;2.60;99.90;;;;;;5012967;28;20037;-70
2022/12/11 02:36:17;;;;;;;25.80;11.18;;;2.60;99.90;;;;;;5015709;28;20497;-70
2022/12/11 02:38:49;;;;;;;26.85;11.30;;;2.60;99.90;;;;;;5017957;28;20518;-70
2022/12/11 02:41:18;;;;;;;26.10;11.18;;;2.60;99.90;;;;;;5019274;28;20041;-70
2022/12/11 02:43:44;;;;;;;24.35;10.45;;;2.60;99.90;;;;;;5014969;28;20029;-69
2022/12/11 02:46:12;;;;;;;29.02;11.68;;;2.60;99.90;;;;;;5000265;28;20038;-69
2022/12/11 02:48:40;;;;;;;30.48;11.40;;;2.60;99.90;;;;;;5017241;28;20044;-70
2022/12/11 02:51:07;;;;;;;23.77;11.02;;;2.60;99.90;;;;;;5017152;28;20045;-70
2022/12/11 02:53:38;;;;;;;28.55;9.95;;;2.60;99.90;;;;;;4999965;28;20099;-71
2022/12/11 02:56:19;;;;;;;25.77;10.93;;;2.60;99.90;;;;;;5017176;28;20133;-70
2022/12/11 02:58:48;;;;;;;25.45;10.77;;;2.60;99.90;;;;;;5016587;28;20034;-69
2022/12/11 03:01:14;;;;;;;23.42;10.15;;;2.60;99.90;;;;;;5000628;28;20406;-71
2022/12/11 03:03:40;;;;;;;25.73;10.80;;;2.60;99.90;;;;;;5016621;28;20033;-70
2022/12/11 03:06:05;;;;;;;23.77;10.05;;;2.60;99.90;;;;;;5017232;28;20483;-70
2022/12/11 03:08:31;;;;;;;28.88;10.95;;;2.60;99.90;;;;;;5020761;28;20033;-71
2022/12/11 03:10:57;;;;;;;21.75;9.30;;;2.60;99.90;;;;;;5019861;28;20557;-70
2022/12/11 03:13:23;;;;;;;30.55;12.07;;;2.60;99.90;;;;;;5018245;28;20038;-70
2022/12/11 03:16:00;;;;;;;25.05;10.05;;;2.60;99.90;;;;;;5004924;28;20120;-70
2022/12/11 03:18:58;;;;;;;26.10;10.95;;;2.60;99.90;;;;;;5017264;28;20034;-69
2022/12/11 03:21:33;;;;;;;24.27;10.88;;;2.60;99.90;;;;;;4947640;28;20045;-70
2022/12/11 03:24:18;;;;;;;28.42;10.30;;;2.60;99.90;;;;;;5002192;28;20034;-70
2022/12/11 03:27:07;;;;;;;24.00;10.18;;;2.60;99.90;;;;;;5021348;28;20111;-70
2022/12/11 03:29:41;;;;;;;22.48;10.35;;;2.50;99.90;;;;;;5000582;28;20041;-70
2022/12/11 03:32:09;;;;;;;27.40;11.07;;;2.60;99.90;;;;;;5020712;28;20804;-70
2022/12/11 03:35:02;;;;;;;21.38;9.05;;;2.50;99.90;;;;;;5002917;28;20383;-70
2022/12/11 03:37:32;;;;;;;20.30;9.05;;;2.60;99.90;;;;;;5016837;28;20049;-69
2022/12/11 03:40:02;;;;;;;21.98;8.48;;;2.60;99.90;;;;;;5019828;28;20096;-70
2022/12/11 03:42:28;;;;;;;23.38;9.13;;;2.60;99.90;;;;;;5020592;28;20036;-69
2022/12/11 03:44:57;;;;;;;22.05;9.40;;;2.60;99.90;;;;;;5018568;28;20082;-71
2022/12/11 03:47:25;;;;;;;24.40;9.77;;;2.50;99.90;;;;;;5022616;28;20052;-70
2022/12/11 03:49:52;;;;;;;23.15;9.45;;;2.50;99.90;;;;;;5018751;28;20042;-70
2022/12/11 03:52:18;;;;;;;23.50;9.95;;;2.50;99.90;;;;;;5022541;28;20037;-70
2022/12/11 03:54:48;;;;;;;23.90;9.10;;;2.50;99.90;;;;;;5018132;28;20042;-69
2022/12/11 03:57:18;;;;;;;24.10;9.15;;;2.50;99.90;;;;;;5021364;28;20108;-70
2022/12/11 03:59:44;;;;;;;25.23;10.30;;;2.50;99.90;;;;;;5021640;28;20040;-70
2022/12/11 04:02:10;;;;;;;23.30;9.50;;;2.60;99.90;;;;;;5017855;28;20033;-70
2022/12/11 04:04:37;;;;;;;23.50;9.55;;;2.60;99.90;;;;;;5001432;28;20048;-70
2022/12/11 04:07:02;;;;;;;24.73;10.77;;;2.60;99.90;;;;;;5019714;28;20030;-70
2022/12/11 04:09:28;;;;;;;26.20;10.32;;;2.50;99.90;;;;;;5020150;28;20453;-69
2022/12/11 04:11:54;;;;;;;23.70;11.32;;;2.50;99.90;;;;;;5019764;28;20569;-71
2022/12/11 04:17:04;;;;;;;27.48;10.80;;;2.50;99.90;;;;;;5020011;28;20033;-69
2022/12/11 04:25:00;;;;;;;26.45;11.88;;;2.50;99.90;;;;;;5011632;28;20036;-70
2022/12/11 04:30:14;;;;;;;28.38;10.65;;;2.50;99.90;;;;;;5017904;28;20040;-70
2022/12/11 04:32:39;;;;;;;23.95;10.73;;;2.50;99.90;;;;;;5002692;28;20071;-70
2022/12/11 04:35:07;;;;;;;29.55;12.93;;;2.50;99.90;;;;;;5000767;28;20053;-70
2022/12/11 04:37:33;;;;;;;28.60;12.05;;;2.50;99.90;;;;;;5001936;28;20041;-69
2022/12/11 04:39:58;;;;;;;25.90;12.30;;;2.50;99.90;;;;;;5020057;28;20022;-70
2022/12/11 04:42:24;;;;;;;28.13;11.73;;;2.50;99.90;;;;;;5019037;28;20041;-70
2022/12/11 04:44:49;;;;;;;24.80;10.13;;;2.50;99.90;;;;;;5020621;28;20298;-70
2022/12/11 04:47:15;;;;;;;27.08;11.07;;;2.50;99.90;;;;;;5021928;28;20044;-70
2022/12/11 04:49:41;;;;;;;23.17;10.70;;;2.50;99.90;;;;;;5017821;28;20042;-69
2022/12/11 04:52:06;;;;;;;26.50;11.43;;;2.50;99.90;;;;;;5020632;28;20124;-69
2022/12/11 04:54:32;;;;;;;25.58;10.98;;;2.50;99.90;;;;;;5019237;28;20513;-69
2022/12/11 04:56:58;;;;;;;24.15;10.98;;;2.50;99.90;;;;;;4999492;28;20038;-69
2022/12/11 04:59:23;;;;;;;28.42;10.52;;;2.50;99.90;;;;;;5017429;28;20037;-69
2022/12/11 05:01:49;;;;;;;24.42;10.25;;;2.50;99.90;;;;;;5002971;28;20029;-69
2022/12/11 05:04:14;;;;;;;23.95;11.07;;;2.50;99.90;;;;;;5016198;28;20038;-70
2022/12/11 05:06:40;;;;;;;24.58;10.32;;;2.50;99.90;;;;;;5007351;28;20379;-70
2022/12/11 05:09:09;;;;;;;27.40;11.48;;;2.50;99.90;;;;;;5019442;28;20044;-70
2022/12/11 05:11:35;;;;;;;24.30;11.20;;;2.50;99.90;;;;;;5005117;28;20053;-70
2022/12/11 05:14:00;;;;;;;24.15;10.55;;;2.50;99.90;;;;;;5018675;28;20034;-71
2022/12/11 05:16:26;;;;;;;24.05;9.77;;;2.50;99.90;;;;;;5020535;28;20037;-70
2022/12/11 05:18:51;;;;;;;24.40;10.75;;;2.50;99.90;;;;;;5018630;28;20041;-70
2022/12/11 05:21:17;;;;;;;27.80;11.20;;;2.50;99.90;;;;;;5020155;28;20036;-70
2022/12/11 05:23:43;;;;;;;31.00;13.82;;;2.40;99.90;;;;;;5017229;28;20060;-69
2022/12/11 05:26:15;;;;;;;23.05;10.38;;;2.50;99.90;;;;;;5016032;28;20512;-69
2022/12/11 05:28:41;;;;;;;26.20;11.18;;;2.50;99.90;;;;;;4999264;28;20038;-70
2022/12/11 05:31:10;;;;;;;27.45;11.90;;;2.50;99.90;;;;;;5019658;28;20033;-70
2022/12/11 05:33:36;;;;;;;25.90;10.18;;;2.40;99.90;;;;;;4999128;28;20628;-70
2022/12/11 05:36:02;;;;;;;26.17;10.45;;;2.40;99.90;;;;;;5001051;28;20034;-70
2022/12/11 05:38:28;;;;;;;26.50;11.10;;;2.40;99.90;;;;;;5018913;28;20045;-69
2022/12/11 05:41:01;;;;;;;24.40;11.10;;;2.40;99.90;;;;;;5017696;28;20082;-69
2022/12/11 05:43:29;;;;;;;23.80;10.98;;;2.40;99.90;;;;;;5018113;28;20053;-70
2022/12/11 05:45:56;;;;;;;25.75;10.77;;;2.40;99.90;;;;;;5018132;28;20030;-70
2022/12/11 05:48:21;;;;;;;27.83;10.45;;;2.50;99.90;;;;;;5000078;28;20067;-70
2022/12/11 05:50:57;;;;;;;28.23;11.93;;;2.50;99.90;;;;;;5001851;28;20478;-70
2022/12/11 05:53:23;;;;;;;28.60;11.23;;;2.50;99.90;;;;;;5000869;28;20494;-70
2022/12/11 05:55:49;;;;;;;27.42;11.27;;;2.50;99.90;;;;;;5019471;28;20092;-70
2022/12/11 05:58:14;;;;;;;20.73;9.55;;;2.50;99.90;;;;;;5016963;28;20054;-70
2022/12/11 06:00:41;;;;;;;27.05;11.30;;;2.50;99.90;;;;;;5019811;28;20035;-70
2022/12/11 06:03:07;;;;;;;24.80;11.65;;;2.40;99.90;;;;;;4998431;28;20048;-70
2022/12/11 06:05:37;;;;;;;22.63;10.23;;;2.40;99.90;;;;;;5019107;28;20034;-71
2022/12/11 06:08:03;;;;;;;24.17;10.13;;;2.40;99.90;;;;;;5016010;28;20070;-70
2022/12/11 06:10:28;;;;;;;28.48;10.73;;;2.40;99.90;;;;;;5019009;28;20042;-70
2022/12/11 06:12:54;;;;;;;24.85;11.15;;;2.40;99.90;;;;;;5000181;28;20038;-70
2022/12/11 06:15:19;;;;;;;24.42;10.85;;;2.40;99.90;;;;;;4998015;28;20060;-70
2022/12/11 06:17:45;;;;;;;23.20;10.68;;;2.40;99.90;;;;;;5016245;28;20046;-70
2022/12/11 06:20:10;;;;;;;22.73;9.68;;;2.40;99.90;;;;;;5019147;28;20080;-70
2022/12/11 06:22:36;;;;;;;24.77;10.40;;;2.40;99.90;;;;;;5014441;28;20026;-69
2022/12/11 06:25:02;;;;;;;22.63;11.05;;;2.40;99.90;;;;;;5018416;28;20045;-71
2022/12/11 06:27:27;;;;;;;26.10;10.95;;;2.40;99.90;;;;;;5001976;28;20398;-70
2022/12/11 06:29:53;;;;;;;23.58;10.75;;;2.40;99.90;;;;;;5017424;28;20026;-70
2022/12/11 06:32:18;;;;;;;24.55;9.77;;;2.40;99.90;;;;;;4999196;28;20030;-71
2022/12/11 06:34:44;;;;;;;27.08;10.90;;;2.40;99.90;;;;;;5018648;28;20045;-70
2022/12/11 06:37:10;;;;;;;24.90;11.15;;;2.40;99.90;;;;;;4997499;28;20076;-70
2022/12/11 06:39:36;;;;;;;22.73;10.07;;;2.40;99.90;;;;;;5011487;28;20111;-70
2022/12/11 06:42:01;;;;;;;25.02;11.45;;;2.40;99.90;;;;;;4999938;28;20853;-71
2022/12/11 06:44:27;;;;;;;27.10;11.10;;;2.40;99.90;;;;;;5017019;28;20398;-70
2022/12/11 06:46:52;;;;;;;25.58;10.40;;;2.40;99.90;;;;;;4999255;28;20038;-70
2022/12/11 06:49:18;;;;;;;23.80;10.10;;;2.40;99.90;;;;;;4996964;28;20035;-69
2022/12/11 06:51:44;;;;;;;31.77;10.75;;;2.40;99.90;;;;;;5008115;28;20026;-69
2022/12/11 06:54:09;;;;;;;27.17;10.48;;;2.40;99.90;;;;;;5009853;28;20139;-70
2022/12/11 06:56:35;;;;;;;27.52;12.25;;;2.40;99.90;;;;;;5008928;28;20029;-70
2022/12/11 06:59:00;;;;;;;32.92;12.15;;;2.30;99.90;;;;;;5010094;28;20076;-70
2022/12/11 07:01:27;;;;;;;30.23;11.60;;;2.40;99.90;;;;;;5010317;28;20082;-70
2022/12/11 07:03:57;;;;;;;30.80;10.95;;;2.40;99.90;;;;;;5009947;28;20033;-70
2022/12/11 07:06:24;;;;;;;29.63;11.98;;;2.40;99.90;;;;;;4997284;28;20052;-70
2022/12/11 07:08:50;;;;;;;28.02;11.05;;;2.30;99.90;;;;;;5014385;28;20121;-69
2022/12/11 07:11:17;;;;;;;27.15;11.48;;;2.30;99.90;;;;;;5017647;28;20136;-69
2022/12/11 07:13:42;;;;;;;27.63;11.60;;;2.40;99.90;;;;;;5017984;28;20041;-69
2022/12/11 07:16:10;;;;;;;26.40;10.85;;;2.40;99.90;;;;;;5015334;28;20034;-70
2022/12/11 07:18:41;;;;;;;26.20;10.32;;;2.30;99.90;;;;;;4993706;28;20107;-70
2022/12/11 07:21:08;;;;;;;31.08;12.02;;;2.30;99.90;;;;;;5012488;28;20040;-69
2022/12/11 07:23:34;;;;;;;22.88;8.95;;;2.40;99.90;;;;;;5011054;28;20502;-71
2022/12/11 07:26:09;;;;;;;24.63;10.95;;;2.30;99.90;;;;;;5007918;28;20029;-70
2022/12/11 07:28:35;;;;;;;23.73;9.40;;;2.30;99.90;;;;;;4993792;28;20037;-71
2022/12/11 07:31:16;;;;;;;22.30;9.07;;;2.40;99.90;;;;;;5000196;28;20029;-70
2022/12/11 07:33:42;;;;;;;18.98;8.60;;;2.30;99.90;;;;;;5011013;28;20046;-70
2022/12/11 07:36:10;;;;;;;22.27;9.95;;;2.30;99.90;;;;;;5016806;28;20108;-69
2022/12/11 07:38:36;;;;;;;23.63;9.30;;;2.30;99.90;;;;;;5007895;28;20403;-69
2022/12/11 07:41:08;;;;;;;23.17;9.48;;;2.30;99.90;;;;;;5014037;28;20554;-70
2022/12/11 07:43:34;;;;;;;27.02;10.07;;;2.30;99.90;;;;;;4993420;28;20038;-70
2022/12/11 07:46:02;;;;;;;22.80;10.02;;;2.30;99.90;;;;;;4996312;28;20084;-70
2022/12/11 07:48:27;;;;;;;23.63;10.52;;;2.30;99.90;;;;;;5002980;28;20128;-70
2022/12/11 07:50:53;;;;;;;23.20;9.40;;;2.30;99.90;;;;;;5015226;28;20169;-70
2022/12/11 07:53:18;;;;;;;23.38;9.93;;;2.30;99.90;;;;;;5012439;28;20037;-69
2022/12/11 07:55:44;;;;;;;28.38;11.93;;;2.30;99.90;;;;;;5019761;28;20543;-70
2022/12/11 07:58:10;;;;;;;26.20;10.57;;;2.30;99.90;;;;;;5000468;28;20767;-70
2022/12/11 08:00:35;;;;;;;25.05;9.70;;;2.30;99.90;;;;;;5020603;28;20572;-70
2022/12/11 08:03:01;;;;;;;27.08;11.05;;;2.30;99.90;;;;;;5016149;28;20409;-70
2022/12/11 08:05:26;;;;;;;22.35;8.90;;;2.30;99.90;;;;;;5018101;28;20406;-69
2022/12/11 08:07:52;;;;;;;22.95;10.15;;;2.30;99.90;;;;;;5001294;28;20114;-70
2022/12/11 08:10:18;;;;;;;23.45;9.27;;;2.30;99.90;;;;;;5015554;28;20042;-70
2022/12/11 08:12:43;;;;;;;25.23;10.55;;;2.30;99.90;;;;;;5014827;28;20041;-69
2022/12/11 08:15:09;;;;;;;22.98;10.07;;;2.30;99.90;;;;;;5019567;28;20147;-69
2022/12/11 08:17:35;;;;;;;23.95;10.30;;;2.30;99.90;;;;;;5002117;28;20048;-69
2022/12/11 08:20:00;;;;;;;27.85;11.00;;;2.30;99.90;;;;;;5012380;28;20036;-70
2022/12/11 08:22:26;;;;;;;25.38;9.50;;;2.30;99.90;;;;;;5017158;28;20108;-69
2022/12/11 08:24:51;;;;;;;24.92;11.05;;;2.30;99.90;;;;;;5018053;28;20502;-70
2022/12/11 08:27:17;;;;;;;25.98;11.45;;;2.30;99.90;;;;;;5009469;28;20066;-69
2022/12/11 08:29:43;;;;;;;24.38;10.18;;;2.30;99.90;;;;;;5018748;28;20022;-70
2022/12/11 08:32:08;;;;;;;23.02;9.60;;;2.30;99.90;;;;;;5017952;28;20777;-69
2022/12/11 08:34:34;;;;;;;22.42;9.10;;;2.30;99.90;;;;;;5016376;28;20037;-70
2022/12/11 08:36:59;;;;;;;25.52;9.88;;;2.30;99.90;;;;;;5012497;28;20036;-70
2022/12/11 08:39:25;;;;;;;23.13;9.77;;;2.40;99.90;;;;;;5002087;28;20041;-69
2022/12/11 08:41:51;;;;;;;26.48;10.85;;;2.40;99.90;;;;;;5020216;28;20116;-69
2022/12/11 08:44:16;;;;;;;23.52;9.35;;;2.40;99.90;;;;;;5001070;28;20033;-70
2022/12/11 08:46:42;;;;;;;21.00;9.27;;;2.40;99.90;;;;;;5017564;28;20030;-72
2022/12/11 08:49:09;;;;;;;22.38;9.63;;;2.40;99.90;;;;;;5019044;28;20111;-70
2022/12/11 08:51:34;;;;;;;20.23;10.15;;;2.40;99.90;;;;;;4998873;28;20030;-70
2022/12/11 08:54:00;;;;;;;19.58;9.40;;;2.50;99.90;;;;;;5019734;28;20560;-70
2022/12/11 08:56:27;;;;;;;24.30;10.50;;;2.50;99.90;;;;;;5017568;28;20033;-70
2022/12/11 08:58:53;;;;;;;22.50;9.80;;;2.50;99.90;;;;;;4999461;28;20049;-69
2022/12/11 09:01:24;;;;;;;26.08;9.55;;;2.50;99.90;;;;;;5016674;28;20037;-70
2022/12/11 09:03:51;;;;;;;19.70;9.40;;;2.50;99.90;;;;;;5018976;28;20046;-69
2022/12/11 09:06:20;;;;;;;20.92;9.05;;;2.50;99.90;;;;;;5014159;28;20038;-70
2022/12/11 09:08:47;;;;;;;20.98;10.07;;;2.50;99.90;;;;;;5015657;28;20065;-70
2022/12/11 09:11:16;;;;;;;23.73;10.73;;;2.60;99.90;;;;;;4999310;28;20044;-70
2022/12/11 09:13:44;;;;;;;22.70;11.27;;;2.60;99.90;;;;;;5019344;28;20045;-70
2022/12/11 09:16:16;;;;;;;23.75;10.48;;;2.60;99.90;;;;;;5017517;28;20050;-70
2022/12/11 09:18:44;;;;;;;23.50;10.30;;;2.60;99.90;;;;;;4996924;28;20129;-70
2022/12/11 09:21:15;;;;;;;24.80;10.57;;;2.60;99.90;;;;;;5000609;28;20043;-69
2022/12/11 09:23:41;;;;;;;21.60;10.18;;;2.60;99.90;;;;;;4999114;28;20037;-71
2022/12/11 09:26:13;;;;;;;24.52;10.30;;;2.60;99.90;;;;;;5012102;28;20436;-70
2022/12/11 09:28:40;;;;;;;24.05;10.38;;;2.70;99.90;;;;;;5018460;28;20044;-71
2022/12/11 09:31:14;;;;;;;25.13;10.60;;;2.70;99.90;;;;;;5016217;28;20038;-70
2022/12/11 09:33:40;;;;;;;25.58;11.25;;;2.60;99.90;;;;;;5000560;28;20029;-69
2022/12/11 09:36:06;;;;;;;27.40;11.70;;;2.60;99.90;;;;;;4997852;28;20029;-72
2022/12/11 09:38:32;;;;;;;25.92;10.95;;;2.60;99.90;;;;;;5015077;28;20128;-70
2022/12/11 09:40:59;;;;;;;24.33;11.43;;;2.70;99.90;;;;;;5017792;28;20034;-71
2022/12/11 09:43:52;;;;;;;35.90;11.07;;;2.70;99.90;;;;;;5016345;28;20042;-68
2022/12/11 09:46:18;;;;;;;22.63;10.05;;;2.70;99.90;;;;;;5016036;28;20042;-71
2022/12/11 09:48:46;;;;;;;23.02;10.23;;;2.70;99.90;;;;;;4996983;28;20167;-70
2022/12/11 09:51:27;;;;;;;21.42;10.43;;;2.70;99.90;;;;;;4997410;28;20169;-70
2022/12/11 09:53:58;;;;;;;23.83;10.65;;;2.70;99.90;;;;;;5014957;28;20081;-70
2022/12/11 09:56:32;;;;;;;23.30;10.00;;;2.70;99.90;;;;;;5015349;28;20037;-70
2022/12/11 09:59:06;;;;;;;26.02;10.20;;;2.80;99.90;;;;;;5011108;28;20514;-71
2022/12/11 10:01:44;;;;;;;21.70;9.43;;;2.80;99.90;;;;;;5013341;28;20038;-70
2022/12/11 10:04:30;;;;;;;24.88;10.75;;;2.80;99.90;;;;;;5015808;28;20620;-70
2022/12/11 10:07:04;;;;;;;23.90;10.45;;;2.90;99.90;;;;;;5010821;28;20048;-70
2022/12/11 10:09:38;;;;;;;27.83;11.77;;;2.90;99.90;;;;;;5011504;28;20046;-70
2022/12/11 10:12:39;;;;;;;22.00;10.52;;;2.80;99.90;;;;;;5015495;28;20067;-71
2022/12/11 10:15:32;;;;;;;20.23;9.68;;;2.90;99.90;;;;;;4996719;28;20445;-71
2022/12/11 10:17:59;;;;;;;23.88;9.85;;;2.90;99.90;;;;;;5018012;28;20038;-71
2022/12/11 10:20:35;;;;;;;21.50;9.32;;;3.00;99.90;;;;;;5012944;28;20553;-70
2022/12/11 10:23:02;;;;;;;18.83;9.00;;;2.90;99.90;;;;;;5013570;28;20030;-71
2022/12/11 10:25:40;;;;;;;20.83;8.27;;;3.00;99.90;;;;;;5012320;28;20045;-70
2022/12/11 10:28:13;;;;;;;20.63;8.82;;;3.00;99.90;;;;;;5016420;28;20521;-70
2022/12/11 10:30:47;;;;;;;20.20;8.80;;;3.00;99.90;;;;;;5012504;28;20033;-70
2022/12/11 10:33:24;;;;;;;20.20;9.02;;;3.00;99.90;;;;;;5014230;28;20358;-70
2022/12/11 10:35:56;;;;;;;20.35;8.45;;;3.00;99.90;;;;;;4996195;28;20038;-71
2022/12/11 10:38:29;;;;;;;21.77;8.15;;;3.10;99.90;;;;;;5017977;28;20037;-70
2022/12/11 10:40:59;;;;;;;17.80;7.85;;;3.10;99.90;;;;;;4993616;28;20092;-71
2022/12/11 10:43:52;;;;;;;20.38;8.70;;;3.10;99.90;;;;;;5011527;28;20038;-71
2022/12/11 10:46:20;;;;;;;18.67;7.82;;;3.10;99.90;;;;;;5012161;28;20044;-69
2022/12/11 10:48:53;;;;;;;21.73;8.85;;;3.20;99.90;;;;;;5001643;28;20083;-70
2022/12/11 10:51:29;;;;;;;18.13;7.20;;;3.20;99.90;;;;;;5017257;28;20092;-70
2022/12/11 10:54:02;;;;;;;19.10;8.52;;;3.20;99.90;;;;;;5007587;28;20763;-70
2022/12/11 10:56:31;;;;;;;26.08;7.93;;;3.20;99.90;;;;;;4992738;28;20037;-71
2022/12/11 10:58:58;;;;;;;16.20;7.63;;;3.20;99.90;;;;;;5012828;28;20561;-71
2022/12/11 11:01:27;;;;;;;21.10;7.75;;;3.20;99.90;;;;;;5007547;28;20045;-71
2022/12/11 11:04:05;;;;;;;21.08;8.40;;;3.20;99.90;;;;;;5010998;28;20502;-70
2022/12/11 11:06:31;;;;;;;19.70;7.55;;;3.20;99.90;;;;;;4994204;28;20482;-70
2022/12/11 11:08:58;;;;;;;22.15;8.57;;;3.30;99.90;;;;;;4999965;28;20124;-71
2022/12/11 11:11:28;;;;;;;17.45;8.52;;;3.30;99.90;;;;;;5013002;28;20061;-70
2022/12/11 11:14:18;;;;;;;15.37;6.13;;;3.20;99.90;;;;;;5009232;28;20124;-70
2022/12/11 11:16:46;;;;;;;17.88;7.28;;;3.20;99.90;;;;;;5016048;28;20034;-70
2022/12/11 11:19:30;;;;;;;18.45;8.35;;;3.20;99.90;;;;;;5013975;28;20045;-70
2022/12/11 11:22:00;;;;;;;16.52;7.82;;;3.20;99.90;;;;;;5011021;28;20049;-70
2022/12/11 11:24:34;;;;;;;19.38;7.45;;;3.20;99.90;;;;;;5018409;28;20049;-70
2022/12/11 11:27:00;;;;;;;18.65;8.68;;;3.30;99.90;;;;;;5016964;28;20064;-70
2022/12/11 11:29:32;;;;;;;19.05;8.40;;;3.30;99.90;;;;;;5021865;28;20037;-71
2022/12/11 11:32:18;;;;;;;21.73;8.90;;;3.20;99.90;;;;;;5018703;28;20041;-72
2022/12/11 11:34:44;;;;;;;21.23;10.00;;;3.20;99.90;;;;;;5018811;28;20062;-71
2022/12/11 11:37:31;;;;;;;20.83;8.07;;;3.30;99.90;;;;;;5019810;28;20147;-71
2022/12/11 11:40:12;;;;;;;22.85;9.55;;;3.30;99.90;;;;;;5015402;28;20114;-70
2022/12/11 11:42:56;;;;;;;21.90;9.38;;;3.30;99.90;;;;;;5018788;28;20411;-70
2022/12/11 11:45:28;;;;;;;18.90;9.15;;;3.20;99.90;;;;;;5014896;28;20040;-71
2022/12/11 11:48:12;;;;;;;22.60;9.45;;;3.30;99.90;;;;;;5019755;28;20030;-71
2022/12/11 11:50:43;;;;;;;25.48;9.32;;;3.30;99.90;;;;;;5017388;28;20434;-71
2022/12/11 11:53:15;;;;;;;19.75;7.53;;;3.30;99.90;;;;;;5018958;28;20034;-70
2022/12/11 11:55:54;;;;;;;19.35;9.23;;;3.30;99.90;;;;;;5002743;28;20041;-71
2022/12/11 11:58:30;;;;;;;21.20;9.20;;;3.40;99.90;;;;;;5014272;28;20069;-70
2022/12/11 12:00:56;;;;;;;24.23;10.00;;;3.40;99.90;;;;;;5009289;28;20057;-71
2022/12/11 12:03:23;;;;;;;26.58;10.07;;;3.40;99.90;;;;;;5006784;28;20527;-71
2022/12/11 12:06:01;;;;;;;22.98;9.13;;;3.40;99.90;;;;;;4995137;28;20124;-70
2022/12/11 12:08:39;;;;;;;24.75;9.48;;;3.40;99.90;;;;;;5014522;28;20080;-71
2022/12/11 12:11:38;;;;;;;21.77;9.93;;;3.40;99.90;;;;;;5000826;28;20041;-70
2022/12/11 12:14:42;;;;;;;23.63;10.30;;;3.40;99.90;;;;;;5010982;28;20582;-71
2022/12/11 12:17:07;;;;;;;25.83;10.63;;;3.40;99.90;;;;;;4933391;28;20497;-70
2022/12/11 12:20:20;;;;;;;23.13;10.23;;;3.40;99.90;;;;;;5017248;28;20033;-70
2022/12/11 12:22:58;;;;;;;24.95;9.93;;;3.50;99.90;;;;;;4928200;29;20051;-70
2022/12/11 12:25:35;;;;;;;28.63;11.07;;;3.40;99.90;;;;;;4931476;29;20102;-70
2022/12/11 12:28:19;;;;;;;26.20;11.15;;;3.40;99.90;;;;;;4992627;28;20518;-70
2022/12/11 12:31:19;;;;;;;27.55;10.25;;;3.40;99.90;;;;;;5003388;28;20121;-70
2022/12/11 12:34:03;;;;;;;28.08;10.02;;;3.30;99.90;;;;;;5001902;28;20065;-70
2022/12/11 12:36:46;;;;;;;30.67;11.82;;;3.30;99.90;;;;;;5016298;28;20037;-68
2022/12/11 12:39:40;;;;;;;29.83;10.63;;;3.30;99.90;;;;;;5017545;28;20505;-70
2022/12/11 12:42:22;;;;;;;25.55;10.10;;;3.30;99.90;;;;;;5017140;28;20124;-70
2022/12/11 12:45:11;;;;;;;30.98;11.65;;;3.20;99.90;;;;;;5013620;28;20069;-70
2022/12/11 12:47:40;;;;;;;32.22;12.18;;;3.30;99.90;;;;;;5019512;28;20025;-70
2022/12/11 12:50:18;;;;;;;34.85;12.40;;;3.20;99.90;;;;;;5018952;28;20033;-70
2022/12/11 12:52:46;;;;;;;30.02;12.13;;;3.20;99.90;;;;;;4999353;28;20038;-70
2022/12/11 12:55:21;;;;;;;30.98;12.50;;;3.30;99.90;;;;;;5020249;28;20057;-69
2022/12/11 12:57:56;;;;;;;33.55;12.45;;;3.30;99.90;;;;;;5013559;28;20037;-70
2022/12/11 13:00:42;;;;;;;32.60;11.27;;;3.30;99.90;;;;;;4997972;28;20087;-70
2022/12/11 13:03:19;;;;;;;31.88;12.32;;;3.30;99.90;;;;;;5016407;28;20018;-70
2022/12/11 13:06:03;;;;;;;23.77;10.23;;;3.30;99.90;;;;;;5013212;28;20030;-69
2022/12/11 13:08:49;;;;;;;29.20;12.52;;;3.30;99.90;;;;;;4998290;28;20036;-69